Unicom:                    122.8

AWOS:                  118.275

Elevation           1458’ MSL

TPA:                   2500’ MSL

06/24:         5003’ L   75’ W

PAPI:       06/Left     24/Left

(Operate lights on unicom freq.)

Traffic Pattern: Left

Beacon: Sunset to Sunrise

Windsock: yes, lighted

Segmented Circle: No

 

Cleveland Center: 126.72/291.65

FSS: Altoona

[Source: ADDS]
METAR
KFKL 042156Z AUTO 19009KT 10SM FEW120 03/M01 A2986 RMK AO2 SLP124 T00331006 =
KFKL 042003Z 0420/0518 20010G18KT P6SM BKN100 FM050000 23005KT P6SM BKN025 FM050300 26004KT P6SM OVC015 FM050900 33005KT P6SM BKN007 FM051100 32006KT P6SM VCSH BKN015
TAF
KFKL 042003Z 0420/0518 20010G18KT P6SM BKN100 FM050000 23005KT P6SM BKN025 FM050300 26004KT P6SM OVC015 FM050900 33005KT P6SM BKN007 FM051100 32006KT P6SM VCSH BKN015 =
[Source: ADDS]
METAR
KDUJ 042204Z AUTO 21003KT 10SM SCT029 03/M01 A2986 RMK AO2 T00281011 =
KDUJ 042100Z 0421/0518 23005KT P6SM OVC035 FM050900 33005KT 6SM -SN OVC008 FM051400 34012G18KT P6SM BKN015
TAF
KDUJ 042100Z 0421/0518 23005KT P6SM OVC035 FM050900 33005KT 6SM -SN OVC008 FM051400 34012G18KT P6SM BKN015 =

Airport Information. 

Runway Length: 5003ft x 75ft

Runways 6/24

Traffic Pattern: Left

PAPI’s: 2 light PAPI on left of both 6/24

TPA: 2500 msl

Field Elevation: 1458 msl

Surface: Asphalt

Beacon: Operates Sunset-Sunrise

Pilot Controlled Lighting:  yes 122.8

 

Fuel:

Jet-A w/prist

100 LL

Center point fueling available upon request.

 

Unicom Frequency: 122.8

AWOS Frequency: 118.27  (814-227-2899)

 

Cleveland Center: 126.72 (440-774-0442)

 

GPS Approach Plates for 6/24 download here: http://www.airnav.com/airport/KAXQ

[Source: ADDS]
METAR
KFKL 042156Z AUTO 19009KT 10SM FEW120 03/M01 A2986 RMK AO2 SLP124 T00331006 =
KFKL 042003Z 0420/0518 20010G18KT P6SM BKN100 FM050000 23005KT P6SM BKN025 FM050300 26004KT P6SM OVC015 FM050900 33005KT P6SM BKN007 FM051100 32006KT P6SM VCSH BKN015
TAF
KFKL 042003Z 0420/0518 20010G18KT P6SM BKN100 FM050000 23005KT P6SM BKN025 FM050300 26004KT P6SM OVC015 FM050900 33005KT P6SM BKN007 FM051100 32006KT P6SM VCSH BKN015 =
[Source: ADDS]
METAR
KDUJ 042204Z AUTO 21003KT 10SM SCT029 03/M01 A2986 RMK AO2 T00281011 =
KDUJ 042100Z 0421/0518 23005KT P6SM OVC035 FM050900 33005KT 6SM -SN OVC008 FM051400 34012G18KT P6SM BKN015
TAF
KDUJ 042100Z 0421/0518 23005KT P6SM OVC035 FM050900 33005KT 6SM -SN OVC008 FM051400 34012G18KT P6SM BKN015 =